Terminal Aerodrome Forecast
Issued by NWS

Home | Current Version | Previous Version | Text Only | Print | Product List | Glossary On
Versions: 1 2 3 4 5 6 7 8 9 10 11 12 13 14 15 16 17 18 19 20 21 22 23 24 25 26 27 28 29 30 31 32
000
FTUS41 KBUF 240214 AAA
TAFJHW
TAF AMD
KJHW 240214Z 2402/2424 27008KT 5SM BR VCSH OVC007
     FM240500 31006KT P6SM BKN007
     FM240700 28006KT 3SM BR SCT007
     FM241200 26008KT P6SM SCT025
     FM241600 27012G20KT P6SM SCT035
      AMD LTD TO CLD VIS AND WIND=

USA.gov is the U.S. government's official web portal to all federal, state and local government web resources and services.